sensor_id;sensor_type;location;lat;lon;timestamp;temperature;humidity
10051;DHT22;5065;46.942;7.432;2023-04-25T00:00:30;13.00;98.80
10051;DHT22;5065;46.942;7.432;2023-04-25T00:02:57;13.00;99.00
10051;DHT22;5065;46.942;7.432;2023-04-25T00:05:26;13.00;99.00
10051;DHT22;5065;46.942;7.432;2023-04-25T00:07:55;12.90;99.00
10051;DHT22;5065;46.942;7.432;2023-04-25T00:10:22;12.90;99.00
10051;DHT22;5065;46.942;7.432;2023-04-25T00:12:49;13.00;99.20
10051;DHT22;5065;46.942;7.432;2023-04-25T00:15:17;12.90;99.20
10051;DHT22;5065;46.942;7.432;2023-04-25T00:17:44;12.90;99.30
10051;DHT22;5065;46.942;7.432;2023-04-25T00:20:12;12.90;99.20
10051;DHT22;5065;46.942;7.432;2023-04-25T00:22:41;12.90;99.30
10051;DHT22;5065;46.942;7.432;2023-04-25T00:25:08;12.90;99.40
10051;DHT22;5065;46.942;7.432;2023-04-25T00:27:36;12.80;99.40
10051;DHT22;5065;46.942;7.432;2023-04-25T00:30:05;12.90;99.30
10051;DHT22;5065;46.942;7.432;2023-04-25T00:32:32;12.90;99.50
10051;DHT22;5065;46.942;7.432;2023-04-25T00:35:00;12.90;99.60
10051;DHT22;5065;46.942;7.432;2023-04-25T00:37:27;12.80;99.60
10051;DHT22;5065;46.942;7.432;2023-04-25T00:39:57;12.80;99.90
10051;DHT22;5065;46.942;7.432;2023-04-25T00:42:25;12.80;99.50
10051;DHT22;5065;46.942;7.432;2023-04-25T00:44:52;12.80;99.60
10051;DHT22;5065;46.942;7.432;2023-04-25T00:47:20;12.80;99.70
10051;DHT22;5065;46.942;7.432;2023-04-25T00:49:48;12.80;99.90
10051;DHT22;5065;46.942;7.432;2023-04-25T00:52:15;12.80;99.90
10051;DHT22;5065;46.942;7.432;2023-04-25T00:54:43;12.80;99.90
10051;DHT22;5065;46.942;7.432;2023-04-25T00:57:11;12.80;99.90
10051;DHT22;5065;46.942;7.432;2023-04-25T00:59:41;12.80;99.90
10051;DHT22;5065;46.942;7.432;2023-04-25T01:02:11;12.70;99.90
10051;DHT22;5065;46.942;7.432;2023-04-25T01:04:39;12.70;99.90
10051;DHT22;5065;46.942;7.432;2023-04-25T01:07:06;12.80;99.90
10051;DHT22;5065;46.942;7.432;2023-04-25T01:09:34;12.70;99.90
10051;DHT22;5065;46.942;7.432;2023-04-25T01:12:02;12.70;99.90
10051;DHT22;5065;46.942;7.432;2023-04-25T01:14:31;12.70;99.90
10051;DHT22;5065;46.942;7.432;2023-04-25T01:16:58;12.70;99.90
10051;DHT22;5065;46.942;7.432;2023-04-25T01:19:26;12.70;99.90
10051;DHT22;5065;46.942;7.432;2023-04-25T01:21:54;12.70;99.90
10051;DHT22;5065;46.942;7.432;2023-04-25T01:24:21;12.70;99.90
10051;DHT22;5065;46.942;7.432;2023-04-25T01:26:49;12.70;99.90
10051;DHT22;5065;46.942;7.432;2023-04-25T01:29:16;12.70;99.90
10051;DHT22;5065;46.942;7.432;2023-04-25T01:31:44;12.70;99.90
10051;DHT22;5065;46.942;7.432;2023-04-25T01:34:12;12.70;99.90
10051;DHT22;5065;46.942;7.432;2023-04-25T01:36:39;12.70;99.90
10051;DHT22;5065;46.942;7.432;2023-04-25T01:39:08;12.70;99.90
10051;DHT22;5065;46.942;7.432;2023-04-25T01:41:36;12.70;99.90
10051;DHT22;5065;46.942;7.432;2023-04-25T01:44:03;12.70;99.90
10051;DHT22;5065;46.942;7.432;2023-04-25T01:46:31;12.60;99.90
10051;DHT22;5065;46.942;7.432;2023-04-25T01:48:58;12.60;99.90
10051;DHT22;5065;46.942;7.432;2023-04-25T01:51:25;12.60;99.90
10051;DHT22;5065;46.942;7.432;2023-04-25T01:53:54;12.60;99.90
10051;DHT22;5065;46.942;7.432;2023-04-25T01:56:23;12.60;99.90
10051;DHT22;5065;46.942;7.432;2023-04-25T01:58:51;12.60;99.90
10051;DHT22;5065;46.942;7.432;2023-04-25T02:01:18;12.60;99.90
10051;DHT22;5065;46.942;7.432;2023-04-25T02:03:45;12.60;99.90
10051;DHT22;5065;46.942;7.432;2023-04-25T02:06:12;12.60;99.90
10051;DHT22;5065;46.942;7.432;2023-04-25T02:08:39;12.60;99.90
10051;DHT22;5065;46.942;7.432;2023-04-25T02:11:06;12.60;99.90
10051;DHT22;5065;46.942;7.432;2023-04-25T02:13:35;12.60;99.90
10051;DHT22;5065;46.942;7.432;2023-04-25T02:16:02;12.60;99.90
10051;DHT22;5065;46.942;7.432;2023-04-25T02:18:29;12.60;99.90
10051;DHT22;5065;46.942;7.432;2023-04-25T02:20:59;12.60;99.90
10051;DHT22;5065;46.942;7.432;2023-04-25T02:23:26;12.60;99.90
10051;DHT22;5065;46.942;7.432;2023-04-25T02:25:56;12.60;99.90
10051;DHT22;5065;46.942;7.432;2023-04-25T02:28:23;12.50;99.90
10051;DHT22;5065;46.942;7.432;2023-04-25T02:30:52;12.50;99.90
10051;DHT22;5065;46.942;7.432;2023-04-25T02:33:20;12.40;99.90
10051;DHT22;5065;46.942;7.432;2023-04-25T02:35:47;12.40;99.90
10051;DHT22;5065;46.942;7.432;2023-04-25T02:38:15;12.40;99.90
10051;DHT22;5065;46.942;7.432;2023-04-25T02:40:42;12.30;99.90
10051;DHT22;5065;46.942;7.432;2023-04-25T02:43:09;12.30;99.90
10051;DHT22;5065;46.942;7.432;2023-04-25T02:45:36;12.30;99.90
10051;DHT22;5065;46.942;7.432;2023-04-25T02:48:05;12.20;99.90
10051;DHT22;5065;46.942;7.432;2023-04-25T02:50:32;12.20;99.90
10051;DHT22;5065;46.942;7.432;2023-04-25T02:53:00;12.20;99.90
10051;DHT22;5065;46.942;7.432;2023-04-25T02:55:27;12.20;99.90
10051;DHT22;5065;46.942;7.432;2023-04-25T02:57:54;12.20;99.90
10051;DHT22;5065;46.942;7.432;2023-04-25T03:00:22;12.10;99.90
10051;DHT22;5065;46.942;7.432;2023-04-25T03:02:49;12.10;99.90
10051;DHT22;5065;46.942;7.432;2023-04-25T03:05:18;12.00;99.90
10051;DHT22;5065;46.942;7.432;2023-04-25T03:07:45;12.00;99.90
10051;DHT22;5065;46.942;7.432;2023-04-25T03:10:12;12.00;99.90
10051;DHT22;5065;46.942;7.432;2023-04-25T03:12:40;11.90;99.90
10051;DHT22;5065;46.942;7.432;2023-04-25T03:15:07;11.80;99.90
10051;DHT22;5065;46.942;7.432;2023-04-25T03:17:36;11.80;99.90
10051;DHT22;5065;46.942;7.432;2023-04-25T03:20:03;11.80;99.90
10051;DHT22;5065;46.942;7.432;2023-04-25T03:22:32;11.80;99.90
10051;DHT22;5065;46.942;7.432;2023-04-25T03:24:59;11.80;99.90
10051;DHT22;5065;46.942;7.432;2023-04-25T03:27:26;11.70;99.90
10051;DHT22;5065;46.942;7.432;2023-04-25T03:29:54;11.70;99.90
10051;DHT22;5065;46.942;7.432;2023-04-25T03:32:21;11.60;99.90
10051;DHT22;5065;46.942;7.432;2023-04-25T03:34:48;11.60;99.90
10051;DHT22;5065;46.942;7.432;2023-04-25T03:37:15;11.60;99.90
10051;DHT22;5065;46.942;7.432;2023-04-25T03:39:44;11.60;99.90
10051;DHT22;5065;46.942;7.432;2023-04-25T03:42:11;11.60;99.90
10051;DHT22;5065;46.942;7.432;2023-04-25T03:44:38;11.60;99.90
10051;DHT22;5065;46.942;7.432;2023-04-25T03:47:05;11.50;99.90
10051;DHT22;5065;46.942;7.432;2023-04-25T03:49:33;11.50;99.90
10051;DHT22;5065;46.942;7.432;2023-04-25T03:52:01;11.50;99.90
10051;DHT22;5065;46.942;7.432;2023-04-25T03:54:28;11.40;99.90
10051;DHT22;5065;46.942;7.432;2023-04-25T03:56:57;11.40;99.90
10051;DHT22;5065;46.942;7.432;2023-04-25T03:59:24;11.40;99.90
10051;DHT22;5065;46.942;7.432;2023-04-25T04:01:51;11.40;99.90
10051;DHT22;5065;46.942;7.432;2023-04-25T04:04:22;11.40;99.90
10051;DHT22;5065;46.942;7.432;2023-04-25T04:06:49;11.40;99.90
10051;DHT22;5065;46.942;7.432;2023-04-25T04:09:16;11.40;99.90
10051;DHT22;5065;46.942;7.432;2023-04-25T04:11:46;11.40;99.90
10051;DHT22;5065;46.942;7.432;2023-04-25T04:14:15;11.20;99.90
10051;DHT22;5065;46.942;7.432;2023-04-25T04:16:42;11.20;99.90
10051;DHT22;5065;46.942;7.432;2023-04-25T04:19:09;11.10;99.90
10051;DHT22;5065;46.942;7.432;2023-04-25T04:21:37;11.00;99.90
10051;DHT22;5065;46.942;7.432;2023-04-25T04:24:04;11.00;99.90
10051;DHT22;5065;46.942;7.432;2023-04-25T04:26:32;11.00;99.90
10051;DHT22;5065;46.942;7.432;2023-04-25T04:29:00;11.10;99.90
10051;DHT22;5065;46.942;7.432;2023-04-25T04:31:28;11.10;99.90
10051;DHT22;5065;46.942;7.432;2023-04-25T04:33:55;11.00;99.90
10051;DHT22;5065;46.942;7.432;2023-04-25T04:36:23;11.00;99.90
10051;DHT22;5065;46.942;7.432;2023-04-25T04:38:51;11.10;99.90
10051;DHT22;5065;46.942;7.432;2023-04-25T04:41:19;11.10;99.90
10051;DHT22;5065;46.942;7.432;2023-04-25T04:43:46;11.00;99.90
10051;DHT22;5065;46.942;7.432;2023-04-25T04:46:14;10.90;99.90
10051;DHT22;5065;46.942;7.432;2023-04-25T04:48:43;11.00;99.90
10051;DHT22;5065;46.942;7.432;2023-04-25T04:51:11;11.00;99.90
10051;DHT22;5065;46.942;7.432;2023-04-25T04:53:38;11.00;99.90
10051;DHT22;5065;46.942;7.432;2023-04-25T04:56:05;11.00;99.90
10051;DHT22;5065;46.942;7.432;2023-04-25T04:58:33;11.10;99.90
10051;DHT22;5065;46.942;7.432;2023-04-25T05:01:02;11.10;99.90
10051;DHT22;5065;46.942;7.432;2023-04-25T05:03:30;11.10;99.90
10051;DHT22;5065;46.942;7.432;2023-04-25T05:06:00;11.10;99.90
10051;DHT22;5065;46.942;7.432;2023-04-25T05:08:28;11.10;99.90
10051;DHT22;5065;46.942;7.432;2023-04-25T05:10:55;11.10;99.90
10051;DHT22;5065;46.942;7.432;2023-04-25T05:13:22;11.20;99.90
10051;DHT22;5065;46.942;7.432;2023-04-25T05:15:49;11.20;99.90
10051;DHT22;5065;46.942;7.432;2023-04-25T05:18:16;11.20;99.90
10051;DHT22;5065;46.942;7.432;2023-04-25T05:20:44;11.30;99.90
10051;DHT22;5065;46.942;7.432;2023-04-25T05:23:12;11.30;99.90
10051;DHT22;5065;46.942;7.432;2023-04-25T05:25:41;11.30;99.90
10051;DHT22;5065;46.942;7.432;2023-04-25T05:28:08;11.30;99.90
10051;DHT22;5065;46.942;7.432;2023-04-25T05:30:35;11.30;99.90
10051;DHT22;5065;46.942;7.432;2023-04-25T05:33:02;11.30;99.90
10051;DHT22;5065;46.942;7.432;2023-04-25T05:35:30;11.30;99.90
10051;DHT22;5065;46.942;7.432;2023-04-25T05:37:57;11.30;99.90
10051;DHT22;5065;46.942;7.432;2023-04-25T05:40:28;11.20;99.90
10051;DHT22;5065;46.942;7.432;2023-04-25T05:42:55;11.20;99.90
10051;DHT22;5065;46.942;7.432;2023-04-25T05:45:23;11.20;99.90
10051;DHT22;5065;46.942;7.432;2023-04-25T05:47:50;11.10;99.90
10051;DHT22;5065;46.942;7.432;2023-04-25T05:50:17;11.10;99.90
10051;DHT22;5065;46.942;7.432;2023-04-25T05:52:44;11.00;99.90
10051;DHT22;5065;46.942;7.432;2023-04-25T05:55:11;11.00;99.90
10051;DHT22;5065;46.942;7.432;2023-04-25T05:57:40;11.00;99.90
10051;DHT22;5065;46.942;7.432;2023-04-25T06:00:12;11.00;99.90
10051;DHT22;5065;46.942;7.432;2023-04-25T06:02:40;11.00;99.90
10051;DHT22;5065;46.942;7.432;2023-04-25T06:05:08;11.00;99.90
10051;DHT22;5065;46.942;7.432;2023-04-25T06:07:35;11.00;99.90
10051;DHT22;5065;46.942;7.432;2023-04-25T06:10:03;11.00;99.90
10051;DHT22;5065;46.942;7.432;2023-04-25T06:12:32;11.00;99.90
10051;DHT22;5065;46.942;7.432;2023-04-25T06:15:00;10.90;99.90
10051;DHT22;5065;46.942;7.432;2023-04-25T06:17:28;11.00;99.90
10051;DHT22;5065;46.942;7.432;2023-04-25T06:19:56;11.00;99.90
10051;DHT22;5065;46.942;7.432;2023-04-25T06:22:26;11.00;99.90
10051;DHT22;5065;46.942;7.432;2023-04-25T06:24:53;11.00;99.90
10051;DHT22;5065;46.942;7.432;2023-04-25T06:27:22;11.00;99.90
10051;DHT22;5065;46.942;7.432;2023-04-25T06:29:50;10.90;99.90
10051;DHT22;5065;46.942;7.432;2023-04-25T06:32:18;11.00;99.90
10051;DHT22;5065;46.942;7.432;2023-04-25T06:34:45;11.10;99.90
10051;DHT22;5065;46.942;7.432;2023-04-25T06:37:13;11.10;99.90
10051;DHT22;5065;46.942;7.432;2023-04-25T06:39:41;11.10;99.90
10051;DHT22;5065;46.942;7.432;2023-04-25T06:42:08;11.10;99.90
10051;DHT22;5065;46.942;7.432;2023-04-25T06:44:35;11.10;99.90
10051;DHT22;5065;46.942;7.432;2023-04-25T06:47:02;11.10;99.90
10051;DHT22;5065;46.942;7.432;2023-04-25T06:49:31;11.10;99.90
10051;DHT22;5065;46.942;7.432;2023-04-25T06:51:58;11.10;99.90
10051;DHT22;5065;46.942;7.432;2023-04-25T06:54:26;11.10;99.90
10051;DHT22;5065;46.942;7.432;2023-04-25T06:56:55;11.20;99.90
10051;DHT22;5065;46.942;7.432;2023-04-25T06:59:23;11.30;99.90
10051;DHT22;5065;46.942;7.432;2023-04-25T07:01:51;11.40;99.90
10051;DHT22;5065;46.942;7.432;2023-04-25T07:04:18;11.50;99.90
10051;DHT22;5065;46.942;7.432;2023-04-25T07:06:46;11.60;99.90
10051;DHT22;5065;46.942;7.432;2023-04-25T07:09:15;11.60;99.90
10051;DHT22;5065;46.942;7.432;2023-04-25T07:11:42;11.60;99.90
10051;DHT22;5065;46.942;7.432;2023-04-25T07:14:09;11.70;99.90
10051;DHT22;5065;46.942;7.432;2023-04-25T07:16:36;11.60;99.90
10051;DHT22;5065;46.942;7.432;2023-04-25T07:19:05;11.60;99.90
10051;DHT22;5065;46.942;7.432;2023-04-25T07:21:32;11.60;99.90
10051;DHT22;5065;46.942;7.432;2023-04-25T07:24:01;11.60;99.90
10051;DHT22;5065;46.942;7.432;2023-04-25T07:26:28;11.60;99.90
10051;DHT22;5065;46.942;7.432;2023-04-25T07:28:55;11.40;99.90
10051;DHT22;5065;46.942;7.432;2023-04-25T07:31:23;11.30;99.90
10051;DHT22;5065;46.942;7.432;2023-04-25T07:33:52;11.20;99.90
10051;DHT22;5065;46.942;7.432;2023-04-25T07:36:19;11.10;99.90
10051;DHT22;5065;46.942;7.432;2023-04-25T07:38:46;11.10;99.90
10051;DHT22;5065;46.942;7.432;2023-04-25T07:41:15;11.00;99.90
10051;DHT22;5065;46.942;7.432;2023-04-25T07:43:42;10.90;99.90
10051;DHT22;5065;46.942;7.432;2023-04-25T07:46:09;10.90;99.90
10051;DHT22;5065;46.942;7.432;2023-04-25T07:48:36;10.90;99.90
10051;DHT22;5065;46.942;7.432;2023-04-25T07:51:04;10.90;99.90
10051;DHT22;5065;46.942;7.432;2023-04-25T07:53:31;10.80;99.90
10051;DHT22;5065;46.942;7.432;2023-04-25T07:56:00;10.70;99.90
10051;DHT22;5065;46.942;7.432;2023-04-25T07:58:29;10.70;99.90
10051;DHT22;5065;46.942;7.432;2023-04-25T08:00:56;10.60;99.90
10051;DHT22;5065;46.942;7.432;2023-04-25T08:03:23;10.60;99.90
10051;DHT22;5065;46.942;7.432;2023-04-25T08:05:50;10.60;99.90
10051;DHT22;5065;46.942;7.432;2023-04-25T08:08:18;10.60;99.90
10051;DHT22;5065;46.942;7.432;2023-04-25T08:10:45;10.60;99.90
10051;DHT22;5065;46.942;7.432;2023-04-25T08:13:13;10.60;99.90
10051;DHT22;5065;46.942;7.432;2023-04-25T08:15:42;10.70;99.90
10051;DHT22;5065;46.942;7.432;2023-04-25T08:18:09;11.00;99.90
10051;DHT22;5065;46.942;7.432;2023-04-25T08:20:37;11.70;99.90
10051;DHT22;5065;46.942;7.432;2023-04-25T08:23:04;12.50;99.90
10051;DHT22;5065;46.942;7.432;2023-04-25T08:25:31;13.10;99.90
10051;DHT22;5065;46.942;7.432;2023-04-25T08:27:58;13.60;99.90
10051;DHT22;5065;46.942;7.432;2023-04-25T08:30:28;14.00;99.90
10051;DHT22;5065;46.942;7.432;2023-04-25T08:32:57;14.50;99.90
10051;DHT22;5065;46.942;7.432;2023-04-25T08:35:24;15.00;99.90
10051;DHT22;5065;46.942;7.432;2023-04-25T08:37:51;15.40;99.90
10051;DHT22;5065;46.942;7.432;2023-04-25T08:40:19;15.70;99.90
10051;DHT22;5065;46.942;7.432;2023-04-25T08:42:53;15.80;99.90
10051;DHT22;5065;46.942;7.432;2023-04-25T08:45:21;15.80;99.90
10051;DHT22;5065;46.942;7.432;2023-04-25T08:47:51;15.70;99.90
10051;DHT22;5065;46.942;7.432;2023-04-25T08:50:21;15.60;99.90
10051;DHT22;5065;46.942;7.432;2023-04-25T08:52:50;15.50;99.90
10051;DHT22;5065;46.942;7.432;2023-04-25T08:55:21;15.40;99.90
10051;DHT22;5065;46.942;7.432;2023-04-25T08:57:49;15.20;99.90
10051;DHT22;5065;46.942;7.432;2023-04-25T09:00:17;15.10;99.90
10051;DHT22;5065;46.942;7.432;2023-04-25T09:02:46;14.90;99.90
10051;DHT22;5065;46.942;7.432;2023-04-25T09:05:14;14.60;99.90
10051;DHT22;5065;46.942;7.432;2023-04-25T09:07:43;14.40;99.90
10051;DHT22;5065;46.942;7.432;2023-04-25T09:10:10;14.20;99.90
10051;DHT22;5065;46.942;7.432;2023-04-25T09:12:37;14.00;99.90
10051;DHT22;5065;46.942;7.432;2023-04-25T09:15:08;13.90;99.90
10051;DHT22;5065;46.942;7.432;2023-04-25T09:17:36;13.70;99.90
10051;DHT22;5065;46.942;7.432;2023-04-25T09:20:07;13.40;99.90
10051;DHT22;5065;46.942;7.432;2023-04-25T09:22:35;13.10;99.90
10051;DHT22;5065;46.942;7.432;2023-04-25T09:25:08;12.80;99.90
10051;DHT22;5065;46.942;7.432;2023-04-25T09:27:36;12.30;99.90
10051;DHT22;5065;46.942;7.432;2023-04-25T09:30:03;12.10;99.90
10051;DHT22;5065;46.942;7.432;2023-04-25T09:32:31;11.90;99.90
10051;DHT22;5065;46.942;7.432;2023-04-25T09:34:59;11.80;99.90
10051;DHT22;5065;46.942;7.432;2023-04-25T09:37:28;11.70;99.90
10051;DHT22;5065;46.942;7.432;2023-04-25T09:39:57;11.60;99.90
10051;DHT22;5065;46.942;7.432;2023-04-25T09:42:27;11.50;99.90
10051;DHT22;5065;46.942;7.432;2023-04-25T09:44:56;11.50;99.90
10051;DHT22;5065;46.942;7.432;2023-04-25T09:47:24;11.50;99.90
10051;DHT22;5065;46.942;7.432;2023-04-25T09:49:52;11.60;99.90
10051;DHT22;5065;46.942;7.432;2023-04-25T09:52:20;11.70;99.90
10051;DHT22;5065;46.942;7.432;2023-04-25T09:54:49;11.80;99.90
10051;DHT22;5065;46.942;7.432;2023-04-25T09:57:18;11.90;99.90
10051;DHT22;5065;46.942;7.432;2023-04-25T09:59:49;12.00;99.90
10051;DHT22;5065;46.942;7.432;2023-04-25T10:02:17;12.20;99.90
10051;DHT22;5065;46.942;7.432;2023-04-25T10:04:49;12.30;99.90
10051;DHT22;5065;46.942;7.432;2023-04-25T10:07:19;12.50;99.90
10051;DHT22;5065;46.942;7.432;2023-04-25T10:09:49;12.50;99.90
10051;DHT22;5065;46.942;7.432;2023-04-25T10:12:17;12.70;99.90
10051;DHT22;5065;46.942;7.432;2023-04-25T10:14:44;12.80;99.90
10051;DHT22;5065;46.942;7.432;2023-04-25T10:17:14;12.80;99.90
10051;DHT22;5065;46.942;7.432;2023-04-25T10:19:41;12.90;99.90
10051;DHT22;5065;46.942;7.432;2023-04-25T10:22:14;13.00;99.90
10051;DHT22;5065;46.942;7.432;2023-04-25T10:24:43;13.00;99.90
10051;DHT22;5065;46.942;7.432;2023-04-25T10:27:12;13.00;99.90
10051;DHT22;5065;46.942;7.432;2023-04-25T10:29:41;12.90;99.90
10051;DHT22;5065;46.942;7.432;2023-04-25T10:32:09;12.90;99.90
10051;DHT22;5065;46.942;7.432;2023-04-25T10:34:42;12.80;99.90
10051;DHT22;5065;46.942;7.432;2023-04-25T10:37:13;12.70;99.90
10051;DHT22;5065;46.942;7.432;2023-04-25T10:39:41;12.70;99.90
10051;DHT22;5065;46.942;7.432;2023-04-25T10:42:09;12.60;99.90
10051;DHT22;5065;46.942;7.432;2023-04-25T10:44:37;12.60;99.90
10051;DHT22;5065;46.942;7.432;2023-04-25T10:47:07;12.70;99.90
10051;DHT22;5065;46.942;7.432;2023-04-25T10:49:36;12.70;99.90
10051;DHT22;5065;46.942;7.432;2023-04-25T10:52:18;12.80;99.90
10051;DHT22;5065;46.942;7.432;2023-04-25T10:54:51;12.90;99.90
10051;DHT22;5065;46.942;7.432;2023-04-25T10:57:32;13.00;99.90
10051;DHT22;5065;46.942;7.432;2023-04-25T11:00:10;13.20;99.90
10051;DHT22;5065;46.942;7.432;2023-04-25T11:02:41;13.30;99.90
10051;DHT22;5065;46.942;7.432;2023-04-25T11:05:14;13.40;99.90
10051;DHT22;5065;46.942;7.432;2023-04-25T11:07:52;13.40;99.90
10051;DHT22;5065;46.942;7.432;2023-04-25T11:10:20;13.40;99.90
10051;DHT22;5065;46.942;7.432;2023-04-25T11:12:51;13.40;99.90
10051;DHT22;5065;46.942;7.432;2023-04-25T11:15:18;13.40;99.90
10051;DHT22;5065;46.942;7.432;2023-04-25T11:17:46;13.40;99.90
10051;DHT22;5065;46.942;7.432;2023-04-25T11:20:13;13.40;99.90
10051;DHT22;5065;46.942;7.432;2023-04-25T11:22:41;13.40;99.90
10051;DHT22;5065;46.942;7.432;2023-04-25T11:25:13;13.40;99.90
10051;DHT22;5065;46.942;7.432;2023-04-25T11:27:50;13.30;99.90
10051;DHT22;5065;46.942;7.432;2023-04-25T11:30:19;13.30;99.90
10051;DHT22;5065;46.942;7.432;2023-04-25T11:32:46;13.30;99.90
10051;DHT22;5065;46.942;7.432;2023-04-25T11:35:14;13.30;99.90
10051;DHT22;5065;46.942;7.432;2023-04-25T11:37:42;13.30;99.90
10051;DHT22;5065;46.942;7.432;2023-04-25T11:40:12;13.30;99.90
10051;DHT22;5065;46.942;7.432;2023-04-25T11:42:43;13.30;99.90
10051;DHT22;5065;46.942;7.432;2023-04-25T11:45:11;13.40;99.90
10051;DHT22;5065;46.942;7.432;2023-04-25T11:47:38;13.40;99.90
10051;DHT22;5065;46.942;7.432;2023-04-25T11:50:07;13.30;99.90
10051;DHT22;5065;46.942;7.432;2023-04-25T11:52:41;13.10;99.90
10051;DHT22;5065;46.942;7.432;2023-04-25T11:55:12;12.90;99.90
10051;DHT22;5065;46.942;7.432;2023-04-25T11:57:40;12.80;99.90
10051;DHT22;5065;46.942;7.432;2023-04-25T12:00:10;12.70;99.90
10051;DHT22;5065;46.942;7.432;2023-04-25T12:02:43;12.60;99.90
10051;DHT22;5065;46.942;7.432;2023-04-25T12:05:13;12.60;99.90
10051;DHT22;5065;46.942;7.432;2023-04-25T12:07:41;12.60;99.90
10051;DHT22;5065;46.942;7.432;2023-04-25T12:10:10;12.70;99.90
10051;DHT22;5065;46.942;7.432;2023-04-25T12:12:42;12.80;99.90
10051;DHT22;5065;46.942;7.432;2023-04-25T12:15:14;12.90;99.90
10051;DHT22;5065;46.942;7.432;2023-04-25T12:17:45;12.90;99.90
10051;DHT22;5065;46.942;7.432;2023-04-25T12:20:14;13.00;99.90
10051;DHT22;5065;46.942;7.432;2023-04-25T12:22:42;13.10;99.90
10051;DHT22;5065;46.942;7.432;2023-04-25T12:25:34;13.10;99.90
10051;DHT22;5065;46.942;7.432;2023-04-25T12:28:11;13.20;99.90
10051;DHT22;5065;46.942;7.432;2023-04-25T12:30:55;13.20;99.90
10051;DHT22;5065;46.942;7.432;2023-04-25T12:33:24;13.30;99.90
10051;DHT22;5065;46.942;7.432;2023-04-25T12:35:52;13.40;99.90
10051;DHT22;5065;46.942;7.432;2023-04-25T12:38:23;13.50;99.90
10051;DHT22;5065;46.942;7.432;2023-04-25T12:40:50;13.50;99.90
10051;DHT22;5065;46.942;7.432;2023-04-25T12:43:19;13.50;99.90
10051;DHT22;5065;46.942;7.432;2023-04-25T12:45:48;13.60;99.90
10051;DHT22;5065;46.942;7.432;2023-04-25T12:48:16;13.60;99.90
10051;DHT22;5065;46.942;7.432;2023-04-25T12:50:44;13.60;99.90
10051;DHT22;5065;46.942;7.432;2023-04-25T12:53:14;13.60;99.90
10051;DHT22;5065;46.942;7.432;2023-04-25T12:55:41;13.60;99.90
10051;DHT22;5065;46.942;7.432;2023-04-25T12:58:09;13.60;99.90
10051;DHT22;5065;46.942;7.432;2023-04-25T13:00:37;13.60;99.90
10051;DHT22;5065;46.942;7.432;2023-04-25T13:03:07;13.70;99.90
10051;DHT22;5065;46.942;7.432;2023-04-25T13:05:34;13.70;99.90
10051;DHT22;5065;46.942;7.432;2023-04-25T13:08:03;13.80;99.90
10051;DHT22;5065;46.942;7.432;2023-04-25T13:10:31;13.70;99.90
10051;DHT22;5065;46.942;7.432;2023-04-25T13:12:59;13.70;99.90
10051;DHT22;5065;46.942;7.432;2023-04-25T13:15:28;13.70;99.90
10051;DHT22;5065;46.942;7.432;2023-04-25T13:17:57;13.70;99.90
10051;DHT22;5065;46.942;7.432;2023-04-25T13:20:24;13.60;99.90
10051;DHT22;5065;46.942;7.432;2023-04-25T13:22:51;13.50;99.90
10051;DHT22;5065;46.942;7.432;2023-04-25T13:25:18;13.40;99.90
10051;DHT22;5065;46.942;7.432;2023-04-25T13:27:47;13.40;99.90
10051;DHT22;5065;46.942;7.432;2023-04-25T13:30:14;13.40;99.90
10051;DHT22;5065;46.942;7.432;2023-04-25T13:32:42;13.50;99.90
10051;DHT22;5065;46.942;7.432;2023-04-25T13:35:33;13.60;99.90
10051;DHT22;5065;46.942;7.432;2023-04-25T13:38:02;13.50;99.90
10051;DHT22;5065;46.942;7.432;2023-04-25T13:40:29;13.50;99.90
10051;DHT22;5065;46.942;7.432;2023-04-25T13:42:57;13.50;99.90
10051;DHT22;5065;46.942;7.432;2023-04-25T13:45:25;13.50;99.90
10051;DHT22;5065;46.942;7.432;2023-04-25T13:47:52;13.40;99.90
10051;DHT22;5065;46.942;7.432;2023-04-25T13:50:19;13.40;99.90
10051;DHT22;5065;46.942;7.432;2023-04-25T13:52:48;13.40;99.90
10051;DHT22;5065;46.942;7.432;2023-04-25T13:55:15;13.40;99.90
10051;DHT22;5065;46.942;7.432;2023-04-25T13:57:42;13.40;99.90
10051;DHT22;5065;46.942;7.432;2023-04-25T14:00:11;13.50;99.90
10051;DHT22;5065;46.942;7.432;2023-04-25T14:02:38;13.40;99.90
10051;DHT22;5065;46.942;7.432;2023-04-25T14:05:06;13.30;99.90
10051;DHT22;5065;46.942;7.432;2023-04-25T14:10:04;13.00;99.90
10051;DHT22;5065;46.942;7.432;2023-04-25T14:12:34;12.80;99.90
10051;DHT22;5065;46.942;7.432;2023-04-25T14:15:01;12.70;99.90
10051;DHT22;5065;46.942;7.432;2023-04-25T14:17:28;12.70;99.90
10051;DHT22;5065;46.942;7.432;2023-04-25T14:19:55;12.80;99.90
10051;DHT22;5065;46.942;7.432;2023-04-25T14:22:22;12.80;99.90
10051;DHT22;5065;46.942;7.432;2023-04-25T14:24:51;12.90;99.90
10051;DHT22;5065;46.942;7.432;2023-04-25T14:27:20;13.00;99.90
10051;DHT22;5065;46.942;7.432;2023-04-25T14:29:48;13.10;99.90
10051;DHT22;5065;46.942;7.432;2023-04-25T14:32:16;13.10;99.90
10051;DHT22;5065;46.942;7.432;2023-04-25T14:34:43;13.10;99.90
10051;DHT22;5065;46.942;7.432;2023-04-25T14:37:10;13.00;99.90
10051;DHT22;5065;46.942;7.432;2023-04-25T14:39:37;12.90;99.90
10051;DHT22;5065;46.942;7.432;2023-04-25T14:42:05;12.80;99.90
10051;DHT22;5065;46.942;7.432;2023-04-25T14:44:33;12.60;99.90
10051;DHT22;5065;46.942;7.432;2023-04-25T14:47:01;12.50;99.90
10051;DHT22;5065;46.942;7.432;2023-04-25T14:49:28;12.50;99.90
10051;DHT22;5065;46.942;7.432;2023-04-25T14:51:55;12.50;99.90
10051;DHT22;5065;46.942;7.432;2023-04-25T14:54:25;12.40;99.90
10051;DHT22;5065;46.942;7.432;2023-04-25T14:56:52;12.40;99.90
10051;DHT22;5065;46.942;7.432;2023-04-25T14:59:22;12.50;99.90
10051;DHT22;5065;46.942;7.432;2023-04-25T15:01:51;12.50;99.90
10051;DHT22;5065;46.942;7.432;2023-04-25T15:04:21;12.60;99.90
10051;DHT22;5065;46.942;7.432;2023-04-25T15:06:48;12.70;99.90
10051;DHT22;5065;46.942;7.432;2023-04-25T15:09:15;12.80;99.90
10051;DHT22;5065;46.942;7.432;2023-04-25T15:11:43;12.80;99.90
10051;DHT22;5065;46.942;7.432;2023-04-25T15:14:10;12.80;99.90
10051;DHT22;5065;46.942;7.432;2023-04-25T15:16:37;12.90;99.90
10051;DHT22;5065;46.942;7.432;2023-04-25T15:19:06;13.00;99.90
10051;DHT22;5065;46.942;7.432;2023-04-25T15:21:33;13.00;99.90
10051;DHT22;5065;46.942;7.432;2023-04-25T15:24:01;13.10;99.90
10051;DHT22;5065;46.942;7.432;2023-04-25T15:26:28;13.10;99.90
10051;DHT22;5065;46.942;7.432;2023-04-25T15:28:55;13.20;99.90
10051;DHT22;5065;46.942;7.432;2023-04-25T15:31:22;13.20;99.90
10051;DHT22;5065;46.942;7.432;2023-04-25T15:33:50;13.20;99.90
10051;DHT22;5065;46.942;7.432;2023-04-25T15:36:18;13.20;99.90
10051;DHT22;5065;46.942;7.432;2023-04-25T15:38:47;13.20;99.90
10051;DHT22;5065;46.942;7.432;2023-04-25T15:41:14;13.20;99.90
10051;DHT22;5065;46.942;7.432;2023-04-25T15:43:41;13.20;99.90
10051;DHT22;5065;46.942;7.432;2023-04-25T15:46:08;13.30;99.90
10051;DHT22;5065;46.942;7.432;2023-04-25T15:48:35;13.30;99.90
10051;DHT22;5065;46.942;7.432;2023-04-25T15:51:03;13.30;99.90
10051;DHT22;5065;46.942;7.432;2023-04-25T15:53:32;13.30;99.90